Historyczne dane pomiarowe

Dodano dane terminowe – wersja testowa.

Dane z okresu 1951-2019

Wersja bazy: 1.34 [2019-03-16, lista zmian], aktualizacja planowana na 2019-04-15

Dane meteo z obszaru Polski uzyskane na podstawie danych udostępnionych przez Instytut Meteorologii i Gospodarki Wodnej – Państwowy Instytut Badawczy.

 

Wybierz Datę:    

       

TemperaturaWilgotnośćZachmurzenieWiatrCiśnienieWidzialnośćZjawiska
 Data    tng td wb rh cc ccl cl cm ch dir g1 g2 mslp ppp      
1994-07-09 00:00:00 14.6--- 11.3 12.781wxwxwx2wx--1013.9 973.4 0.0---wx
1994-07-09 01:00:00 14.6--- 11.3 12.781wxwxwx2wx--1013.9 973.4----wx
1994-07-09 02:00:00 14.2--- 11.2 12.582wxwxwx2wx--1013.7 973.2----wx
1994-07-09 03:00:00 14.6--- 11.8 13.084wxwxwx2wx--1013.7 973.2----wx
1994-07-09 04:00:00 14.7--- 11.9 13.184wxwxwx2wx--1013.6 973.2----wx
1994-07-09 05:00:00 14.9--- 12.2 13.384wxwxwx3wx--1013.8 973.4----wx
1994-07-09 06:00:00 15.0--- 11.3 12.979wxwxwxwx3wx--1014.2 973.8 0.0---wx
1994-07-09 07:00:00 16.6--- 11.2 13.571wxwxwxwx5wx--1014.2 974.0----wx
1994-07-09 08:00:00 17.0--- 10.1 13.164wxwxwx5wx--1014.1 974.0----wx
1994-07-09 09:00:00 16.6--- 10.9 13.369wxwxwx5wx--1014.5 974.3----wx
1994-07-09 10:00:00 17.3--- 11.3 13.868wxwxwx4wx--1014.7 974.6----wx
1994-07-09 11:00:00 17.7--- 11.0 13.865wxwxwx4wx--1014.9 974.8----wx
1994-07-09 12:00:00 18.1--- 11.2 14.164wxwxwx5wx--1015.1 975.1 0.0---wx
1994-07-09 13:00:00 17.5--- 11.7 14.169wxwxwx3wx--1015.6 975.5----wx
1994-07-09 14:00:00 16.2--- 14.2 15.088wxwxwx0wx--1016.3 976.0----wxw1
1994-07-09 15:00:00 16.6--- 13.1 14.580wxwxwx1wx--1016.2 975.9----wx
1994-07-09 16:00:00 16.4--- 13.4 14.682wxwxwx1wx--1016.2 975.9----wxw1
1994-07-09 17:00:00 15.4--- 14.4 14.894wxwxwx0wx--1017.0 976.5----wxw1
1994-07-09 18:00:00 14.8--- 13.8 14.294wxwxwx0wx--1017.6 977.0 9.8---wxw1
1994-07-09 19:00:00 14.4--- 13.9 14.197wxwxwx0wx--1017.6 977.0----wxw1
1994-07-09 20:00:00 13.8--- 13.5 13.698wxwxwx0wx--1017.7 977.0----wxw1
1994-07-09 21:00:00 14.3--- 13.8 14.097wxwxwx0wx--1018.2 977.5----wxw1
1994-07-09 22:00:00 14.8--- 14.1 14.496wxwxwx3wx--1018.7 978.1----wx
1994-07-09 23:00:00 14.6--- 13.9 14.296wxwxwx2wx--1019.4 978.7----wx

 

Źródłem pochodzenia danych jest Instytut Meteorologii i Gospodarki Wodnej – Państwowy Instytut Badawczy. Dane Instytutu Meteorologii i Gospodarki Wodnej – Państwowego Instytutu Badawczego zostały przetworzone.

Dane źródłowe można odnaleźć na stronie https://dane.imgw.pl